Time;durP1;ratioP1;P1;durP2;ratioP2;P2;SDS_P1;SDS_P2;PMS_P1;PMS_P2;Temp;Humidity;BMP_temperature;BMP_pressure;BME280_temperature;BME280_humidity;BME280_pressure;Samples;Min_cycle;Max_cycle;Signal;HPM_P1;HPM_P2
2023/01/29 00:01:06;;;;;;;17.30;9.82;;;5.70;99.90;;;;;;5131542;28;20223;-76
2023/01/29 00:03:32;;;;;;;17.88;9.50;;;5.70;99.90;;;;;;5130799;27;20233;-76
2023/01/29 00:05:59;;;;;;;18.48;10.93;;;5.70;99.90;;;;;;5117968;28;20315;-77
2023/01/29 00:08:26;;;;;;;18.50;11.40;;;5.70;99.90;;;;;;5115933;27;20176;-76
2023/01/29 00:10:51;;;;;;;23.48;12.35;;;5.70;99.90;;;;;;5137006;27;20271;-76
2023/01/29 00:13:17;;;;;;;22.00;11.32;;;5.70;99.90;;;;;;5130932;27;20645;-77
2023/01/29 00:15:54;;;;;;;22.45;11.57;;;5.70;99.90;;;;;;5132033;27;20192;-76
2023/01/29 00:18:20;;;;;;;20.98;11.25;;;5.70;99.90;;;;;;5132210;27;20495;-76
2023/01/29 00:20:46;;;;;;;18.95;11.50;;;5.70;99.90;;;;;;5135490;27;20299;-76
2023/01/29 00:23:11;;;;;;;18.80;11.50;;;5.60;99.90;;;;;;5133371;27;20201;-76
2023/01/29 00:25:37;;;;;;;20.35;12.20;;;5.70;99.90;;;;;;5135749;27;20180;-76
2023/01/29 00:28:03;;;;;;;19.90;11.60;;;5.70;99.90;;;;;;5135307;27;20181;-76
2023/01/29 00:30:29;;;;;;;18.08;11.95;;;5.70;99.90;;;;;;5132057;27;20212;-76
2023/01/29 00:32:54;;;;;;;17.13;11.07;;;5.70;99.90;;;;;;5114425;27;20211;-80
2023/01/29 00:35:20;;;;;;;20.23;11.85;;;5.70;99.90;;;;;;5133376;27;20177;-76
2023/01/29 00:37:46;;;;;;;22.02;11.57;;;5.70;99.90;;;;;;5133753;27;20544;-76
2023/01/29 00:40:12;;;;;;;17.95;10.57;;;5.70;99.90;;;;;;5116901;27;20348;-77
2023/01/29 00:45:22;;;;;;;18.98;10.90;;;5.70;99.90;;;;;;5123476;27;20197;-76
2023/01/29 00:47:48;;;;;;;18.48;11.05;;;5.60;99.90;;;;;;5114495;28;20548;-76
2023/01/29 00:50:14;;;;;;;20.35;11.07;;;5.70;99.90;;;;;;5128421;27;20350;-76
2023/01/29 00:52:40;;;;;;;20.17;11.35;;;5.70;99.90;;;;;;5123278;27;20177;-76
2023/01/29 00:55:08;;;;;;;18.58;11.55;;;5.70;99.90;;;;;;5133590;27;20182;-76
2023/01/29 00:57:35;;;;;;;17.10;12.05;;;5.70;99.90;;;;;;5098905;28;20265;-76
2023/01/29 01:00:02;;;;;;;24.00;12.38;;;5.70;99.90;;;;;;5131992;27;20201;-76
2023/01/29 01:05:16;;;;;;;22.40;11.98;;;5.70;99.90;;;;;;5117537;27;20218;-77
2023/01/29 01:07:48;;;;;;;18.27;11.68;;;5.60;99.90;;;;;;5133077;27;20653;-78
2023/01/29 01:10:21;;;;;;;20.80;12.05;;;5.60;99.90;;;;;;5133168;27;20241;-76
2023/01/29 01:12:58;;;;;;;19.83;12.15;;;5.60;99.90;;;;;;5134171;27;20314;-76
2023/01/29 01:15:27;;;;;;;21.67;11.98;;;5.60;99.90;;;;;;5115816;27;20578;-76
2023/01/29 01:17:58;;;;;;;21.30;12.93;;;5.70;99.90;;;;;;5130700;27;20630;-81
2023/01/29 01:20:25;;;;;;;21.98;12.07;;;5.70;99.90;;;;;;5132629;27;20235;-77
2023/01/29 01:22:53;;;;;;;26.63;13.02;;;5.70;99.90;;;;;;5116864;27;20189;-78
2023/01/29 01:25:20;;;;;;;24.05;14.00;;;5.70;99.90;;;;;;5132302;27;20233;-77
2023/01/29 01:27:46;;;;;;;27.88;15.07;;;5.70;99.90;;;;;;5117449;27;20577;-78
2023/01/29 01:30:15;;;;;;;28.27;14.75;;;5.60;99.90;;;;;;5131509;27;20218;-77
2023/01/29 01:32:41;;;;;;;25.27;15.52;;;5.60;99.90;;;;;;5113548;28;20183;-77
2023/01/29 01:35:08;;;;;;;21.73;13.77;;;5.60;99.90;;;;;;5132692;27;21082;-78
2023/01/29 01:37:36;;;;;;;23.05;13.93;;;5.70;99.90;;;;;;5126146;27;20177;-78
2023/01/29 01:40:11;;;;;;;25.10;13.60;;;5.60;99.90;;;;;;5132675;27;20691;-82
2023/01/29 01:42:38;;;;;;;21.73;12.35;;;5.60;99.90;;;;;;5113529;28;20226;-78
2023/01/29 01:45:09;;;;;;;22.23;14.43;;;5.70;99.90;;;;;;5131226;27;20642;-77
2023/01/29 01:47:44;;;;;;;29.17;12.95;;;5.70;99.90;;;;;;5133445;27;20268;-78
2023/01/29 01:50:26;;;;;;;21.50;13.57;;;5.70;99.90;;;;;;5123496;27;20187;-78
2023/01/29 01:52:56;;;;;;;18.70;12.98;;;5.70;99.90;;;;;;5112977;28;20208;-77
2023/01/29 01:55:26;;;;;;;23.70;13.68;;;5.70;99.90;;;;;;5134901;27;20184;-77
2023/01/29 01:57:58;;;;;;;26.00;15.50;;;5.70;99.90;;;;;;5120707;27;20184;-77
2023/01/29 02:00:25;;;;;;;25.17;15.10;;;5.60;99.90;;;;;;5133208;27;20308;-77
2023/01/29 02:11:18;;;;;;;24.77;14.93;;;5.70;99.90;;;;;;5114157;28;20265;-78
2023/01/29 02:13:44;;;;;;;21.98;14.90;;;5.70;99.90;;;;;;5125085;27;20227;-78
2023/01/29 02:16:10;;;;;;;26.98;15.43;;;5.70;99.90;;;;;;5131169;27;20276;-77
2023/01/29 02:18:36;;;;;;;25.98;16.40;;;5.70;99.90;;;;;;5119140;27;20712;-77
2023/01/29 02:21:40;;;;;;;31.45;17.15;;;5.70;99.90;;;;;;5114198;28;20216;-77
2023/01/29 02:24:15;;;;;;;26.92;16.52;;;5.70;99.90;;;;;;5100224;27;20644;-79
2023/01/29 02:26:43;;;;;;;29.77;17.65;;;5.70;99.90;;;;;;5133064;27;20176;-77
2023/01/29 02:29:33;;;;;;;28.50;16.75;;;5.70;99.90;;;;;;5130484;27;20206;-78
2023/01/29 02:32:21;;;;;;;30.45;16.77;;;5.70;99.90;;;;;;5128159;27;20264;-78
2023/01/29 02:35:24;;;;;;;26.67;16.67;;;5.70;99.90;;;;;;5131435;27;20192;-77
2023/01/29 02:38:28;;;;;;;29.55;16.50;;;5.70;99.90;;;;;;5134295;27;20168;-78
2023/01/29 02:41:17;;;;;;;24.05;16.17;;;5.70;99.90;;;;;;5137120;27;20262;-78
2023/01/29 02:43:45;;;;;;;31.00;15.88;;;5.70;99.90;;;;;;5114498;27;20651;-80
2023/01/29 02:46:36;;;;;;;26.52;15.50;;;5.70;99.90;;;;;;5132150;27;20638;-78
2023/01/29 02:49:25;;;;;;;25.20;16.13;;;5.70;99.90;;;;;;5131322;27;20205;-78
2023/01/29 02:52:00;;;;;;;22.83;15.27;;;5.70;99.90;;;;;;5115849;27;20177;-79
2023/01/29 02:54:32;;;;;;;31.20;17.23;;;5.70;99.90;;;;;;5120929;27;20173;-79
2023/01/29 02:57:20;;;;;;;23.70;15.73;;;5.70;99.90;;;;;;5113299;28;20256;-77
2023/01/29 03:00:01;;;;;;;27.58;15.70;;;5.70;99.90;;;;;;5127006;27;20204;-78
2023/01/29 03:02:51;;;;;;;26.25;15.35;;;5.70;99.90;;;;;;5129195;27;20221;-79
2023/01/29 03:05:28;;;;;;;26.13;15.98;;;5.70;99.90;;;;;;5106055;28;20237;-77
2023/01/29 03:08:02;;;;;;;25.88;17.05;;;5.60;99.90;;;;;;5111369;28;20181;-81
2023/01/29 03:10:50;;;;;;;28.13;16.65;;;5.60;99.90;;;;;;5111796;27;20181;-77
2023/01/29 03:13:28;;;;;;;25.73;16.40;;;5.60;99.90;;;;;;5114177;27;20235;-77
2023/01/29 03:16:03;;;;;;;26.52;17.25;;;5.60;99.90;;;;;;5131662;27;20160;-79
2023/01/29 03:18:44;;;;;;;28.33;16.80;;;5.60;99.90;;;;;;5129956;27;20181;-78
2023/01/29 03:21:50;;;;;;;28.08;16.90;;;5.60;99.90;;;;;;5129752;27;20277;-77
2023/01/29 03:34:00;;;;;;;34.20;19.00;;;5.60;99.90;;;;;;5117774;27;20225;-77
2023/01/29 03:36:44;;;;;;;34.90;20.67;;;5.60;99.90;;;;;;5114841;27;20176;-78
2023/01/29 03:39:11;;;;;;;33.35;21.13;;;5.60;99.90;;;;;;5112446;27;20208;-77
2023/01/29 03:41:51;;;;;;;36.13;21.08;;;5.60;99.90;;;;;;5129303;27;20492;-78
2023/01/29 03:44:31;;;;;;;30.95;21.02;;;5.60;99.90;;;;;;5121374;27;20538;-78
2023/01/29 03:47:25;;;;;;;33.40;21.40;;;5.50;99.90;;;;;;5130572;27;20658;-78
2023/01/29 03:50:12;;;;;;;34.85;21.05;;;5.50;99.90;;;;;;5130247;27;20553;-79
2023/01/29 03:52:43;;;;;;;33.97;22.17;;;5.50;99.90;;;;;;5113839;27;20267;-77
2023/01/29 03:55:29;;;;;;;34.97;23.05;;;5.50;99.90;;;;;;5115247;27;20188;-77
2023/01/29 03:58:03;;;;;;;38.25;23.85;;;5.60;99.90;;;;;;5111076;28;20207;-79
2023/01/29 04:00:57;;;;;;;36.33;23.33;;;5.50;99.90;;;;;;5132974;28;20249;-77
2023/01/29 04:03:55;;;;;;;40.88;24.25;;;5.50;99.90;;;;;;5111679;28;20177;-77
2023/01/29 04:06:31;;;;;;;39.38;23.20;;;5.50;99.90;;;;;;5115161;28;20196;-78
2023/01/29 04:09:04;;;;;;;34.42;23.50;;;5.50;99.90;;;;;;5119091;28;20177;-77
2023/01/29 04:11:35;;;;;;;40.83;25.15;;;5.50;99.90;;;;;;5110789;28;20633;-77
2023/01/29 04:14:01;;;;;;;42.13;26.50;;;5.50;99.90;;;;;;5116315;28;20213;-78
2023/01/29 04:16:40;;;;;;;42.45;26.08;;;5.50;99.90;;;;;;5115733;28;20608;-78
2023/01/29 04:19:15;;;;;;;40.95;25.42;;;5.50;99.90;;;;;;5130060;28;20212;-77
2023/01/29 04:21:44;;;;;;;40.20;24.52;;;5.50;99.90;;;;;;5120557;27;20439;-77
2023/01/29 04:24:11;;;;;;;37.92;23.80;;;5.50;99.90;;;;;;5129939;28;20188;-78
2023/01/29 04:26:43;;;;;;;36.72;23.88;;;5.50;99.90;;;;;;5130826;28;20195;-77
2023/01/29 04:29:34;;;;;;;40.35;23.67;;;5.50;99.90;;;;;;5131389;27;20181;-77
2023/01/29 04:32:23;;;;;;;36.17;23.20;;;5.50;99.90;;;;;;5130205;28;20184;-77
2023/01/29 04:35:19;;;;;;;37.25;22.95;;;5.50;99.90;;;;;;5130676;28;20178;-77
2023/01/29 04:38:25;;;;;;;36.83;22.58;;;5.50;99.90;;;;;;5129992;28;20506;-77
2023/01/29 04:41:12;;;;;;;35.28;22.30;;;5.60;99.90;;;;;;5119305;28;20287;-78
2023/01/29 04:44:14;;;;;;;35.42;22.92;;;5.60;99.90;;;;;;5126818;27;20184;-82
2023/01/29 04:47:12;;;;;;;36.72;23.17;;;5.50;99.90;;;;;;5121573;28;20168;-79
2023/01/29 04:50:13;;;;;;;39.72;22.08;;;5.50;99.90;;;;;;5111987;28;20295;-78
2023/01/29 04:52:45;;;;;;;42.50;23.42;;;5.50;99.90;;;;;;5132319;27;20225;-78
2023/01/29 04:55:28;;;;;;;38.85;24.38;;;5.60;99.90;;;;;;5132342;27;20274;-75
2023/01/29 04:58:11;;;;;;;34.85;22.98;;;5.50;99.90;;;;;;5120620;27;20181;-76
2023/01/29 05:00:41;;;;;;;43.90;24.83;;;5.50;99.90;;;;;;5120550;27;20192;-76
2023/01/29 05:03:10;;;;;;;42.00;24.80;;;5.60;99.90;;;;;;5134232;27;20184;-77
2023/01/29 05:05:40;;;;;;;41.03;24.25;;;5.60;99.90;;;;;;5125908;27;20178;-76
2023/01/29 05:08:08;;;;;;;39.67;24.48;;;5.60;99.90;;;;;;5122441;27;20172;-81
2023/01/29 05:10:34;;;;;;;37.55;23.77;;;5.60;99.90;;;;;;5119204;27;20265;-76
2023/01/29 05:13:03;;;;;;;47.42;25.73;;;5.60;99.90;;;;;;5118269;27;20212;-77
2023/01/29 05:15:53;;;;;;;42.03;23.40;;;5.60;99.90;;;;;;5135071;27;20185;-76
2023/01/29 05:18:19;;;;;;;43.00;24.70;;;5.60;99.90;;;;;;5126452;27;20185;-76
2023/01/29 05:20:46;;;;;;;40.30;24.52;;;5.60;99.90;;;;;;5115043;27;20668;-77
2023/01/29 05:23:21;;;;;;;40.70;24.85;;;5.60;99.90;;;;;;5117150;27;20261;-76
2023/01/29 05:25:48;;;;;;;42.38;25.60;;;5.50;99.90;;;;;;5135624;27;20642;-76
2023/01/29 05:28:17;;;;;;;41.88;25.40;;;5.60;99.90;;;;;;5132344;27;20181;-76
2023/01/29 05:30:48;;;;;;;41.38;25.40;;;5.60;99.90;;;;;;5126472;27;20271;-77
2023/01/29 05:33:17;;;;;;;43.40;25.20;;;5.60;99.90;;;;;;5114647;27;20643;-77
2023/01/29 05:35:43;;;;;;;40.58;25.00;;;5.60;99.90;;;;;;5134140;27;20187;-76
2023/01/29 05:38:09;;;;;;;40.63;25.05;;;5.60;99.90;;;;;;5133912;27;20176;-76
2023/01/29 05:40:35;;;;;;;40.63;25.55;;;5.60;99.90;;;;;;5116932;27;20197;-77
2023/01/29 05:43:01;;;;;;;41.60;24.48;;;5.60;99.90;;;;;;5126459;27;20551;-80
2023/01/29 05:45:27;;;;;;;37.75;24.15;;;5.50;99.90;;;;;;5134889;27;20181;-77
2023/01/29 05:47:57;;;;;;;41.60;25.23;;;5.50;99.90;;;;;;5134467;27;20191;-77
2023/01/29 05:50:23;;;;;;;38.67;23.63;;;5.50;99.90;;;;;;5127357;27;20212;-77
2023/01/29 05:52:54;;;;;;;41.95;25.40;;;5.50;99.90;;;;;;5114413;27;20173;-78
2023/01/29 05:55:20;;;;;;;36.38;23.70;;;5.40;99.90;;;;;;5120960;27;20181;-76
2023/01/29 05:57:46;;;;;;;41.10;23.38;;;5.50;99.90;;;;;;5134292;27;20264;-76
2023/01/29 06:00:12;;;;;;;39.28;23.88;;;5.50;99.90;;;;;;5132742;27;20721;-76
2023/01/29 06:02:39;;;;;;;40.58;24.35;;;5.50;99.90;;;;;;5123681;27;20180;-76
2023/01/29 06:05:05;;;;;;;35.95;23.33;;;5.50;99.90;;;;;;5124289;27;20185;-76
2023/01/29 06:07:31;;;;;;;39.03;23.50;;;5.50;99.90;;;;;;5113757;28;20169;-75
2023/01/29 06:09:56;;;;;;;38.80;23.15;;;5.50;99.90;;;;;;5128375;27;20188;-77
2023/01/29 06:12:22;;;;;;;39.45;22.95;;;5.50;99.90;;;;;;5124110;27;20441;-76
2023/01/29 06:14:48;;;;;;;36.80;23.35;;;5.50;99.90;;;;;;5125665;27;20212;-76
2023/01/29 06:17:14;;;;;;;38.83;23.30;;;5.50;99.90;;;;;;5113701;27;20185;-76
2023/01/29 06:19:39;;;;;;;37.15;23.08;;;5.50;99.90;;;;;;5105129;27;20746;-76
2023/01/29 06:22:05;;;;;;;36.20;22.30;;;5.50;99.90;;;;;;5125814;27;20217;-76
2023/01/29 06:24:31;;;;;;;34.85;22.73;;;5.50;99.90;;;;;;5131726;27;20191;-76
2023/01/29 06:26:57;;;;;;;38.03;24.10;;;5.50;99.90;;;;;;5134738;27;20187;-76
2023/01/29 06:29:23;;;;;;;41.05;25.25;;;5.40;99.90;;;;;;5129540;27;20552;-75
2023/01/29 06:31:49;;;;;;;40.53;25.27;;;5.50;99.90;;;;;;5133172;27;20172;-77
2023/01/29 06:34:14;;;;;;;41.55;26.15;;;5.50;99.90;;;;;;5123221;27;20196;-75
2023/01/29 06:36:40;;;;;;;45.22;27.10;;;5.50;99.90;;;;;;5113044;28;20177;-75
2023/01/29 06:39:06;;;;;;;44.20;27.05;;;5.50;99.90;;;;;;5131370;27;20188;-76
2023/01/29 06:41:33;;;;;;;56.33;28.73;;;5.50;99.90;;;;;;5117281;27;20192;-80
2023/01/29 06:43:59;;;;;;;47.08;27.65;;;5.50;99.90;;;;;;5121679;27;20187;-75
2023/01/29 06:46:24;;;;;;;50.58;29.67;;;5.50;99.90;;;;;;5129716;27;20259;-76
2023/01/29 06:48:50;;;;;;;56.38;31.35;;;5.50;99.90;;;;;;5123378;27;20692;-76
2023/01/29 06:51:16;;;;;;;57.95;31.58;;;5.50;99.90;;;;;;5132748;27;20241;-75
2023/01/29 06:53:42;;;;;;;54.20;32.67;;;5.50;99.90;;;;;;5131282;27;20169;-74
2023/01/29 06:56:08;;;;;;;54.45;31.73;;;5.50;99.90;;;;;;5133918;27;20236;-75
2023/01/29 06:58:37;;;;;;;53.17;31.88;;;5.50;99.90;;;;;;5128865;27;20189;-76
2023/01/29 07:01:05;;;;;;;54.90;31.90;;;5.50;99.90;;;;;;5131851;27;20212;-76
2023/01/29 07:03:32;;;;;;;51.70;31.42;;;5.50;99.90;;;;;;5128304;27;20181;-75
2023/01/29 07:05:57;;;;;;;54.13;31.95;;;5.50;99.90;;;;;;5113519;28;20184;-76
2023/01/29 07:08:23;;;;;;;48.85;28.88;;;5.50;99.90;;;;;;5122531;27;20181;-79
2023/01/29 07:10:49;;;;;;;51.20;29.88;;;5.50;99.90;;;;;;5120352;27;20260;-75
2023/01/29 07:13:15;;;;;;;53.05;30.20;;;5.50;99.90;;;;;;5113677;27;20232;-76
2023/01/29 07:15:41;;;;;;;50.40;30.67;;;5.50;99.90;;;;;;5132263;27;20183;-75
2023/01/29 07:18:11;;;;;;;51.83;29.20;;;5.50;99.90;;;;;;5128238;27;20185;-75
2023/01/29 07:20:39;;;;;;;51.72;30.38;;;5.50;99.90;;;;;;5133189;27;20678;-77
2023/01/29 07:23:05;;;;;;;45.58;27.23;;;5.50;99.90;;;;;;5132123;27;20199;-79
2023/01/29 07:25:32;;;;;;;48.40;29.27;;;5.50;99.90;;;;;;5112968;28;20185;-77
2023/01/29 07:28:02;;;;;;;50.92;28.77;;;5.50;99.90;;;;;;5123994;27;20185;-77
2023/01/29 07:30:28;;;;;;;47.47;28.92;;;5.40;99.90;;;;;;5148359;27;20216;-76
2023/01/29 07:32:54;;;;;;;44.13;28.02;;;5.40;99.90;;;;;;5131819;27;20187;-84
2023/01/29 07:35:19;;;;;;;45.40;28.58;;;5.50;99.90;;;;;;5131059;27;20192;-77
2023/01/29 07:37:49;;;;;;;48.08;30.90;;;5.50;99.90;;;;;;5118909;27;20230;-77
2023/01/29 07:40:14;;;;;;;47.15;28.90;;;5.50;99.90;;;;;;5115612;27;20205;-77
2023/01/29 07:42:43;;;;;;;51.28;30.55;;;5.50;99.90;;;;;;5115838;27;20181;-86
2023/01/29 07:45:10;;;;;;;49.65;32.30;;;5.50;99.90;;;;;;5111818;28;20173;-76
2023/01/29 07:47:36;;;;;;;50.90;30.50;;;5.50;99.90;;;;;;5113230;28;20697;-75
2023/01/29 07:50:03;;;;;;;50.60;31.70;;;5.50;99.90;;;;;;5124970;27;20608;-78
2023/01/29 07:52:30;;;;;;;50.17;30.65;;;5.50;99.90;;;;;;5133352;27;20188;-78
2023/01/29 07:54:55;;;;;;;51.75;31.92;;;5.50;99.90;;;;;;5132298;27;20184;-75
2023/01/29 07:57:21;;;;;;;54.45;32.95;;;5.50;99.90;;;;;;5131260;27;20257;-76
2023/01/29 07:59:47;;;;;;;54.30;33.53;;;5.50;99.90;;;;;;5121735;27;20251;-76
2023/01/29 08:02:13;;;;;;;55.88;35.58;;;5.50;99.90;;;;;;5132788;27;20238;-76
2023/01/29 08:04:39;;;;;;;62.40;35.38;;;5.50;99.90;;;;;;5101235;28;20633;-76
2023/01/29 08:07:05;;;;;;;57.58;35.20;;;5.50;99.90;;;;;;5121874;28;20196;-80
2023/01/29 08:09:31;;;;;;;59.45;33.83;;;5.50;99.90;;;;;;5131107;28;20188;-80
2023/01/29 08:11:57;;;;;;;53.63;34.83;;;5.60;99.90;;;;;;5132856;28;20581;-80
2023/01/29 08:14:23;;;;;;;54.30;33.13;;;5.60;99.90;;;;;;5123120;28;20227;-78
2023/01/29 08:16:49;;;;;;;54.15;32.58;;;5.60;99.90;;;;;;5121851;27;20594;-76
2023/01/29 08:19:15;;;;;;;55.20;33.55;;;5.50;99.90;;;;;;5128984;28;20699;-75
2023/01/29 08:21:41;;;;;;;51.95;33.55;;;5.60;99.90;;;;;;5114601;28;20269;-75
2023/01/29 08:24:07;;;;;;;55.67;34.33;;;5.50;99.90;;;;;;5124653;28;20217;-76
2023/01/29 08:26:32;;;;;;;55.42;34.53;;;5.50;99.90;;;;;;5130230;28;20824;-79
2023/01/29 08:28:58;;;;;;;56.13;35.33;;;5.50;99.90;;;;;;5120018;27;20185;-75
2023/01/29 08:31:24;;;;;;;52.15;32.67;;;5.60;99.90;;;;;;5130019;27;20188;-77
2023/01/29 08:33:50;;;;;;;60.13;36.25;;;5.50;99.90;;;;;;5134419;27;20187;-76
2023/01/29 08:36:16;;;;;;;52.95;31.90;;;5.50;99.90;;;;;;5129128;27;20631;-76
2023/01/29 08:38:41;;;;;;;58.65;33.30;;;5.50;99.90;;;;;;5125766;27;20264;-76
2023/01/29 08:41:07;;;;;;;61.55;35.65;;;5.50;99.90;;;;;;5134900;27;20244;-77
2023/01/29 08:43:35;;;;;;;52.78;33.90;;;5.50;99.90;;;;;;5133161;27;20189;-77
2023/01/29 08:46:03;;;;;;;55.20;34.45;;;5.50;99.90;;;;;;5133027;27;20647;-75
2023/01/29 08:48:29;;;;;;;58.17;35.90;;;5.50;99.90;;;;;;5134346;27;20180;-76
2023/01/29 08:50:58;;;;;;;62.97;36.13;;;5.50;99.90;;;;;;5115624;27;20177;-77
2023/01/29 08:53:24;;;;;;;55.55;35.33;;;5.50;99.90;;;;;;5137582;27;20198;-83
2023/01/29 08:55:51;;;;;;;55.45;34.30;;;5.50;99.90;;;;;;5132054;27;20196;-77
2023/01/29 08:58:17;;;;;;;56.20;34.58;;;5.60;99.90;;;;;;5122885;27;20189;-80
2023/01/29 09:00:43;;;;;;;56.97;35.70;;;5.50;99.90;;;;;;5117976;27;20593;-76
2023/01/29 09:03:09;;;;;;;55.85;34.55;;;5.60;99.90;;;;;;5119455;27;20201;-76
2023/01/29 09:05:36;;;;;;;56.40;34.80;;;5.50;99.90;;;;;;5121234;27;20664;-76
2023/01/29 09:08:03;;;;;;;57.58;34.63;;;5.50;99.90;;;;;;5130256;27;20177;-77
2023/01/29 09:10:29;;;;;;;61.08;35.22;;;5.60;99.90;;;;;;5132430;27;20188;-76
2023/01/29 09:12:55;;;;;;;52.88;34.53;;;5.60;99.90;;;;;;5123623;27;20216;-77
2023/01/29 09:15:20;;;;;;;54.67;34.15;;;5.60;99.90;;;;;;5130056;27;20604;-78
2023/01/29 09:17:48;;;;;;;55.25;34.30;;;5.60;99.90;;;;;;5133973;27;20207;-76
2023/01/29 09:20:14;;;;;;;57.05;35.63;;;5.60;99.90;;;;;;5118732;27;20225;-76
2023/01/29 09:22:41;;;;;;;53.20;31.38;;;5.60;99.90;;;;;;5121947;27;20174;-76
2023/01/29 09:25:07;;;;;;;54.08;33.42;;;5.70;99.90;;;;;;5117427;27;20201;-74
2023/01/29 09:27:33;;;;;;;63.13;33.90;;;5.70;99.90;;;;;;5127573;27;20195;-75
2023/01/29 09:29:59;;;;;;;56.10;33.35;;;5.70;99.90;;;;;;5131380;27;20188;-75
2023/01/29 09:32:24;;;;;;;55.35;33.20;;;5.70;99.90;;;;;;5133706;27;20604;-76
2023/01/29 09:34:50;;;;;;;51.80;31.83;;;5.70;99.90;;;;;;5134069;27;20180;-76
2023/01/29 09:37:16;;;;;;;58.05;33.30;;;5.70;99.90;;;;;;5119884;27;20173;-77
2023/01/29 09:39:43;;;;;;;60.28;35.35;;;5.70;99.90;;;;;;5124144;27;20575;-76
2023/01/29 09:42:27;;;;;;;52.22;33.25;;;5.80;99.90;;;;;;5124337;27;20637;-80
2023/01/29 09:45:14;;;;;;;55.85;33.72;;;5.80;99.90;;;;;;5119468;27;20549;-75
2023/01/29 09:47:40;;;;;;;55.38;33.45;;;5.80;99.90;;;;;;5113627;27;20181;-78
2023/01/29 09:50:13;;;;;;;59.40;35.35;;;5.80;99.90;;;;;;5133013;27;20616;-77
2023/01/29 09:52:52;;;;;;;58.45;33.17;;;5.80;99.90;;;;;;5130345;27;20202;-76
2023/01/29 09:55:34;;;;;;;57.50;32.95;;;5.90;99.90;;;;;;5146907;27;20199;-77
2023/01/29 09:58:06;;;;;;;55.92;33.17;;;5.80;99.90;;;;;;5114849;27;20177;-76
2023/01/29 10:00:56;;;;;;;54.05;34.75;;;5.80;99.90;;;;;;5113255;27;20551;-78
2023/01/29 10:04:01;;;;;;;55.70;34.30;;;5.90;99.90;;;;;;5117679;27;20641;-76
2023/01/29 10:06:36;;;;;;;56.72;30.60;;;5.80;99.90;;;;;;5131952;27;20184;-75
2023/01/29 10:09:32;;;;;;;60.28;33.80;;;5.90;99.90;;;;;;5130072;27;20667;-76
2023/01/29 10:12:17;;;;;;;58.10;32.83;;;5.90;99.90;;;;;;5115708;27;20238;-76
2023/01/29 10:14:58;;;;;;;54.30;32.25;;;5.90;99.90;;;;;;5127367;27;20184;-80
2023/01/29 10:18:00;;;;;;;55.28;33.03;;;5.90;99.90;;;;;;5132058;27;20614;-77
2023/01/29 10:20:45;;;;;;;56.95;33.28;;;5.90;99.90;;;;;;5130325;27;20200;-78
2023/01/29 10:23:23;;;;;;;57.28;32.17;;;5.90;99.90;;;;;;5120254;27;20636;-77
2023/01/29 10:25:50;;;;;;;58.05;34.38;;;5.90;99.90;;;;;;5129855;27;20234;-76
2023/01/29 10:28:42;;;;;;;57.15;32.17;;;5.90;99.90;;;;;;5128773;27;20185;-76
2023/01/29 10:31:26;;;;;;;56.40;33.35;;;5.90;99.90;;;;;;5132872;27;20526;-76
2023/01/29 10:33:59;;;;;;;65.43;35.05;;;5.90;99.90;;;;;;5127785;27;20219;-76
2023/01/29 10:36:35;;;;;;;59.95;34.20;;;6.00;99.90;;;;;;5121351;27;20178;-75
2023/01/29 10:39:01;;;;;;;59.17;35.15;;;6.00;99.90;;;;;;5129040;27;20184;-76
2023/01/29 10:41:44;;;;;;;53.70;33.55;;;6.00;99.90;;;;;;5127792;27;20285;-78
2023/01/29 10:44:26;;;;;;;56.28;33.17;;;6.00;99.90;;;;;;5115149;27;20659;-75
2023/01/29 10:47:05;;;;;;;59.47;33.50;;;6.00;99.90;;;;;;5117542;27;20183;-75
2023/01/29 10:49:40;;;;;;;55.00;33.92;;;6.00;99.90;;;;;;5132945;27;20650;-76
2023/01/29 10:52:43;;;;;;;57.53;33.85;;;6.00;99.90;;;;;;5130471;27;20220;-78
2023/01/29 10:55:27;;;;;;;54.83;33.17;;;6.00;99.90;;;;;;5118649;27;20183;-75
2023/01/29 10:58:24;;;;;;;57.00;32.47;;;6.00;99.90;;;;;;5121006;27;20239;-76
2023/01/29 11:00:51;;;;;;;56.47;33.58;;;6.00;99.90;;;;;;5112367;27;20205;-76
2023/01/29 11:03:28;;;;;;;53.60;32.42;;;6.00;99.90;;;;;;5113290;27;20640;-82
2023/01/29 11:06:25;;;;;;;55.78;34.28;;;6.00;99.90;;;;;;5112335;27;20224;-77
2023/01/29 11:09:07;;;;;;;58.45;33.13;;;6.00;99.90;;;;;;5122394;27;20172;-80
2023/01/29 11:11:45;;;;;;;56.30;32.08;;;6.00;99.90;;;;;;5122547;27;20177;-76
2023/01/29 11:14:21;;;;;;;55.17;33.65;;;6.10;99.90;;;;;;5130862;27;20216;-77
2023/01/29 11:16:48;;;;;;;49.05;28.80;;;6.10;99.90;;;;;;5131934;27;20168;-76
2023/01/29 11:19:15;;;;;;;59.90;32.97;;;6.10;99.90;;;;;;5104819;28;20618;-75
2023/01/29 11:21:56;;;;;;;54.58;32.65;;;6.10;99.90;;;;;;5125542;27;20347;-76
2023/01/29 11:24:22;;;;;;;58.47;34.78;;;6.10;99.90;;;;;;5123811;27;20195;-75
2023/01/29 11:26:50;;;;;;;56.85;31.52;;;6.10;99.90;;;;;;5128368;27;20182;-75
2023/01/29 11:29:32;;;;;;;56.40;31.63;;;6.10;99.90;;;;;;5119057;27;20174;-76
2023/01/29 11:31:59;;;;;;;59.03;31.00;;;6.10;99.90;;;;;;5112770;27;20181;-75
2023/01/29 11:34:29;;;;;;;46.72;27.42;;;6.10;99.90;;;;;;5124971;27;20625;-75
2023/01/29 11:36:56;;;;;;;51.08;29.98;;;6.10;99.90;;;;;;5118137;27;20194;-75
2023/01/29 11:39:26;;;;;;;55.53;33.38;;;6.10;99.90;;;;;;5127501;27;20170;-75
2023/01/29 11:41:54;;;;;;;53.72;31.23;;;6.10;99.90;;;;;;5126225;27;20255;-75
2023/01/29 11:44:40;;;;;;;57.28;33.33;;;6.10;99.90;;;;;;5125655;27;20211;-76
2023/01/29 11:47:25;;;;;;;59.30;32.03;;;6.10;99.90;;;;;;5115445;27;20267;-77
2023/01/29 11:50:04;;;;;;;54.63;30.30;;;6.10;99.90;;;;;;5115784;27;20291;-80
2023/01/29 11:52:40;;;;;;;48.97;30.70;;;6.10;99.90;;;;;;5112785;28;20175;-74
2023/01/29 11:55:16;;;;;;;55.45;31.40;;;6.10;99.90;;;;;;5121316;28;20184;-75
2023/01/29 11:57:48;;;;;;;49.72;29.55;;;6.10;99.90;;;;;;5133276;27;20208;-76
2023/01/29 12:00:21;;;;;;;53.20;30.77;;;6.10;99.90;;;;;;5112929;27;20205;-76
2023/01/29 12:02:54;;;;;;;54.05;30.42;;;6.10;99.90;;;;;;5112403;28;20173;-75
2023/01/29 12:05:23;;;;;;;53.78;30.58;;;6.20;99.90;;;;;;5132689;27;20184;-78
2023/01/29 12:07:52;;;;;;;55.65;30.63;;;6.20;99.90;;;;;;5123605;27;20221;-80
2023/01/29 12:10:37;;;;;;;54.75;31.30;;;6.20;99.90;;;;;;5137265;27;20212;-76
2023/01/29 12:13:25;;;;;;;58.38;32.33;;;6.20;99.90;;;;;;5132442;27;20356;-77
2023/01/29 12:16:17;;;;;;;54.50;31.80;;;6.20;99.90;;;;;;5120184;27;20188;-76
2023/01/29 12:19:05;;;;;;;56.20;31.13;;;6.20;99.90;;;;;;5131115;27;20176;-76
2023/01/29 12:22:18;;;;;;;53.10;29.88;;;6.20;99.90;;;;;;5092216;27;20209;-76
2023/01/29 12:24:44;;;;;;;49.35;27.52;;;6.20;99.90;;;;;;5110465;27;20200;-76
2023/01/29 12:27:37;;;;;;;53.75;29.85;;;6.20;99.90;;;;;;5115633;27;20202;-76
2023/01/29 12:30:23;;;;;;;46.97;28.80;;;6.20;99.90;;;;;;5134467;27;20180;-76
2023/01/29 12:32:55;;;;;;;51.30;29.98;;;6.20;99.90;;;;;;5118300;27;20184;-76
2023/01/29 12:35:27;;;;;;;51.72;28.60;;;6.30;99.90;;;;;;5132236;27;20161;-76
2023/01/29 12:37:52;;;;;;;45.80;26.60;;;6.20;99.90;;;;;;5125077;27;20172;-76
2023/01/29 12:40:20;;;;;;;49.10;28.88;;;6.20;99.90;;;;;;5137583;27;20732;-78
2023/01/29 12:42:54;;;;;;;44.53;28.10;;;6.20;99.90;;;;;;5127448;27;20188;-76
2023/01/29 12:45:24;;;;;;;46.95;28.77;;;6.30;99.90;;;;;;5136016;27;20565;-76
2023/01/29 12:48:25;;;;;;;48.25;26.80;;;6.30;99.90;;;;;;5132503;27;20628;-76
2023/01/29 12:50:52;;;;;;;42.42;25.85;;;6.30;99.90;;;;;;5101791;27;20197;-77
2023/01/29 12:53:35;;;;;;;41.83;26.10;;;6.30;99.90;;;;;;5135827;27;20561;-76
2023/01/29 12:56:28;;;;;;;42.60;25.92;;;6.30;99.90;;;;;;5124579;27;20188;-76
2023/01/29 12:58:56;;;;;;;44.15;25.85;;;6.30;99.90;;;;;;5123615;27;20225;-76
2023/01/29 13:01:40;;;;;;;41.00;24.38;;;6.40;99.90;;;;;;5137418;27;20215;-76
2023/01/29 13:04:14;;;;;;;39.83;24.17;;;6.30;99.90;;;;;;5135575;27;20180;-75
2023/01/29 13:06:48;;;;;;;39.47;23.75;;;6.30;99.90;;;;;;5127970;27;20187;-76
2023/01/29 13:09:23;;;;;;;38.92;22.90;;;6.30;99.90;;;;;;5128043;27;20347;-75
2023/01/29 13:11:55;;;;;;;35.97;22.95;;;6.30;99.90;;;;;;5139175;27;20180;-75
2023/01/29 13:14:42;;;;;;;36.63;22.67;;;6.30;99.90;;;;;;5133318;27;20219;-75
2023/01/29 13:17:35;;;;;;;33.92;20.95;;;6.30;99.90;;;;;;5115592;27;20173;-75
2023/01/29 13:20:12;;;;;;;35.05;21.38;;;6.30;99.90;;;;;;5130689;27;20196;-75
2023/01/29 13:22:41;;;;;;;31.73;20.58;;;6.30;99.90;;;;;;5127456;27;20184;-75
2023/01/29 13:25:16;;;;;;;34.35;21.90;;;6.30;99.90;;;;;;5124665;27;20184;-77
2023/01/29 13:27:44;;;;;;;36.05;21.40;;;6.30;99.90;;;;;;5133043;27;20647;-78
2023/01/29 13:30:35;;;;;;;40.17;22.20;;;6.40;99.90;;;;;;5127688;27;20700;-78